KFAR/FAR METAR and TAF weather

Enter ICAO airport designator
Station Type Date Time Source
KFAR METAR 2020/11/27 02:53 UTC NOAA

KFAR 270253Z AUTO 30019G28KT 10SM OVC065 02/M03 A2991 RMK AO2 PK WND 30028/0248 SLP139 T00221033 53009


Station Type Date Time Source
KFAR Decoded METAR 2020/11/27 02:53 UTC NOAA

HECTOR INTERNATIONAL AIRPORT , ND, United States (KFAR) 46-56N 096-49W 277M
Nov 26, 2020 - 09:53 PM EST / 2020.11.27 0253 UTC
Wind: from the WNW (300 degrees) at 22 MPH (19 KT) gusting to 32 MPH (28 KT):0
Visibility: 10 mile(s):0
Sky conditions: overcast
Temperature: 36.0 F (2.2 C)
Dew Point: 26.1 F (-3.3 C)
Relative Humidity: 66%
Pressure (altimeter): 29.91 in. Hg (1012 hPa)
Pressure tendency: 0.03 inches (0.9 hPa) higher than three hours ago
ob: KFAR 270253Z AUTO 30019G28KT 10SM OVC065 02/M03 A2991 RMK AO2 PK WND 30028/0248 SLP139 T00221033 53009
cycle: 3

Station Type Date Time Source
KFAR TAF 2020/11/27 02:48 UTC NOAA

TAF
AMD KFAR 270146Z 2702/2724 24011KT P6SM BKN080
FM270300 30012G19KT P6SM BKN050
FM270600 29012KT P6SM SCT060
FM271800 22012G20KT P6SM SCT250

Example: see airport list